createdAt,value
2019-05-12T00:00:10.606Z,1013.76
2019-05-12T00:01:10.529Z,1013.77
2019-05-12T00:02:10.482Z,1013.80
2019-05-12T00:03:10.414Z,1013.81
2019-05-12T00:04:10.368Z,1013.81
2019-05-12T00:05:10.344Z,1013.83
2019-05-12T00:06:10.252Z,1013.86
2019-05-12T00:07:10.195Z,1013.85
2019-05-12T00:08:10.174Z,1013.87
2019-05-12T00:09:10.097Z,1013.93
2019-05-12T00:10:10.061Z,1013.87
2019-05-12T00:11:09.993Z,1013.91
2019-05-12T00:12:09.927Z,1013.88
2019-05-12T00:13:09.873Z,1013.89
2019-05-12T00:14:09.825Z,1013.91
2019-05-12T00:15:09.785Z,1013.90
2019-05-12T00:16:09.710Z,1013.96
2019-05-12T00:17:09.650Z,1013.94
2019-05-12T00:18:09.603Z,1013.96
2019-05-12T00:19:09.540Z,1013.97
2019-05-12T00:20:09.507Z,1013.99
2019-05-12T00:21:09.437Z,1014.06
2019-05-12T00:22:09.377Z,1014.03
2019-05-12T00:23:23.805Z,1014.08
2019-05-12T00:24:09.267Z,1014.09
2019-05-12T00:25:09.247Z,1014.12
2019-05-12T00:26:09.164Z,1014.17
2019-05-12T00:27:09.109Z,1014.15
2019-05-12T00:28:09.048Z,1014.22
2019-05-12T00:29:09.004Z,1014.24
2019-05-12T00:30:09.894Z,1014.25
2019-05-12T00:31:08.884Z,1014.28
2019-05-12T00:32:08.832Z,1014.26
2019-05-12T00:33:09.545Z,1014.31
2019-05-12T00:34:08.729Z,1014.30
2019-05-12T00:35:08.707Z,1014.32
2019-05-12T00:36:08.618Z,1014.31
2019-05-12T00:37:08.555Z,1014.32
2019-05-12T00:38:09.223Z,1014.33
2019-05-12T00:39:08.826Z,1014.35
2019-05-12T00:40:08.983Z,1014.34
2019-05-12T00:41:08.740Z,1014.33
2019-05-12T00:42:08.289Z,1014.35
2019-05-12T00:43:08.856Z,1014.39
2019-05-12T00:44:08.799Z,1014.38
2019-05-12T00:45:08.331Z,1014.43
2019-05-12T00:46:08.065Z,1014.44
2019-05-12T00:47:08.226Z,1014.47
2019-05-12T00:48:09.184Z,1014.49
2019-05-12T00:49:08.232Z,1014.54
2019-05-12T00:50:08.297Z,1014.56
2019-05-12T00:51:07.880Z,1014.58
2019-05-12T00:52:08.064Z,1014.56
2019-05-12T00:53:09.139Z,1014.59
2019-05-12T00:54:09.251Z,1014.60
2019-05-12T00:55:08.070Z,1014.57
2019-05-12T00:56:08.506Z,1014.58
2019-05-12T00:57:07.848Z,1014.57
2019-05-12T00:58:08.235Z,1014.59
2019-05-12T00:59:08.390Z,1014.59
2019-05-12T01:00:09.150Z,1014.58
2019-05-12T01:01:08.126Z,1014.57
2019-05-12T01:02:07.998Z,1014.56
2019-05-12T01:03:08.669Z,1014.59
2019-05-12T01:04:08.768Z,1014.61
2019-05-12T01:05:08.579Z,1014.61
2019-05-12T01:06:08.358Z,1014.61
2019-05-12T01:07:08.679Z,1014.67
2019-05-12T01:08:08.919Z,1014.71
2019-05-12T01:09:08.805Z,1014.71
2019-05-12T01:10:08.631Z,1014.74
2019-05-12T01:11:08.661Z,1014.76
2019-05-12T01:12:07.962Z,1014.81
2019-05-12T01:13:08.565Z,1014.85
2019-05-12T01:14:08.582Z,1014.83
2019-05-12T01:15:07.493Z,1014.85
2019-05-12T01:16:08.119Z,1014.89
2019-05-12T01:17:08.250Z,1014.90
2019-05-12T01:18:08.916Z,1014.90
2019-05-12T01:19:07.927Z,1014.97
2019-05-12T01:20:08.693Z,1015.03
2019-05-12T01:21:07.727Z,1015.02
2019-05-12T01:22:08.098Z,1015.01
2019-05-12T01:23:08.238Z,1015.01
2019-05-12T01:24:08.331Z,1014.99
2019-05-12T01:25:08.376Z,1015.01
2019-05-12T01:26:08.667Z,1015.01
2019-05-12T01:27:05.808Z,1015.02
2019-05-12T01:28:07.943Z,1015.01
2019-05-12T01:29:05.696Z,1015.06
2019-05-12T01:30:05.651Z,1015.08
2019-05-12T01:31:05.608Z,1015.05
2019-05-12T01:32:07.734Z,1015.08
2019-05-12T01:33:05.473Z,1015.12
2019-05-12T01:34:07.950Z,1015.13
2019-05-12T01:35:05.372Z,1015.12
2019-05-12T01:36:07.816Z,1015.14
2019-05-12T01:37:05.255Z,1015.17
2019-05-12T01:38:07.761Z,1015.21
2019-05-12T01:39:05.150Z,1015.20
2019-05-12T01:40:05.105Z,1015.25
2019-05-12T01:41:05.066Z,1015.29
2019-05-12T01:42:04.982Z,1015.26
2019-05-12T01:43:04.924Z,1015.31
2019-05-12T01:44:04.864Z,1015.32
2019-05-12T01:45:04.814Z,1015.30
2019-05-12T01:46:04.802Z,1015.34
2019-05-12T01:47:04.701Z,1015.36
2019-05-12T01:48:04.675Z,1015.35
2019-05-12T01:49:04.591Z,1015.40
2019-05-12T01:50:04.536Z,1015.39
2019-05-12T01:51:04.484Z,1015.35
2019-05-12T01:52:04.455Z,1015.37
2019-05-12T01:53:04.369Z,1015.36
2019-05-12T01:54:11.830Z,1015.33
2019-05-12T01:55:04.257Z,1015.37
2019-05-12T01:56:04.207Z,1015.36
2019-05-12T01:57:04.171Z,1015.34
2019-05-12T01:58:04.100Z,1015.36
2019-05-12T01:59:04.041Z,1015.36
2019-05-12T02:00:03.985Z,1015.37
2019-05-12T02:01:03.931Z,1015.35
2019-05-12T02:02:03.905Z,1015.40
2019-05-12T02:03:03.817Z,1015.36
2019-05-12T02:04:03.765Z,1015.41
2019-05-12T02:05:03.717Z,1015.42
2019-05-12T02:06:03.654Z,1015.44
2019-05-12T02:07:03.625Z,1015.46
2019-05-12T02:08:03.538Z,1015.44
2019-05-12T02:09:03.488Z,1015.46
2019-05-12T02:10:03.435Z,1015.45
2019-05-12T02:11:03.375Z,1015.45
2019-05-12T02:12:03.350Z,1015.45
2019-05-12T02:13:03.272Z,1015.45
2019-05-12T02:14:03.216Z,1015.46
2019-05-12T02:15:03.165Z,1015.52
2019-05-12T02:16:03.107Z,1015.52
2019-05-12T02:17:03.073Z,1015.53
2019-05-12T02:18:02.988Z,1015.58
2019-05-12T02:19:02.942Z,1015.59
2019-05-12T02:20:02.885Z,1015.53
2019-05-12T02:21:02.826Z,1015.59
2019-05-12T02:22:02.795Z,1015.59
2019-05-12T02:23:02.719Z,1015.60
2019-05-12T02:24:02.661Z,1015.62
2019-05-12T02:25:02.613Z,1015.63
2019-05-12T02:26:02.554Z,1015.59
2019-05-12T02:27:02.519Z,1015.63
2019-05-12T02:28:02.449Z,1015.63
2019-05-12T02:29:02.387Z,1015.67
2019-05-12T02:30:02.332Z,1015.72
2019-05-12T02:31:02.290Z,1015.72
2019-05-12T02:32:02.262Z,1015.73
2019-05-12T02:33:04.945Z,1015.76
2019-05-12T02:34:05.470Z,1015.75
2019-05-12T02:35:05.585Z,1015.74
2019-05-12T02:36:04.673Z,1015.75
2019-05-12T02:37:05.273Z,1015.72
2019-05-12T02:38:04.704Z,1015.74
2019-05-12T02:39:05.211Z,1015.75
2019-05-12T02:40:04.799Z,1015.76
2019-05-12T02:41:04.502Z,1015.78
2019-05-12T02:42:04.930Z,1015.77
2019-05-12T02:43:04.867Z,1015.74
2019-05-12T02:44:05.003Z,1015.80
2019-05-12T02:45:01.513Z,1015.80
2019-05-12T02:46:04.542Z,1015.81
2019-05-12T02:47:04.902Z,1015.80
2019-05-12T02:48:01.363Z,1015.80
2019-05-12T02:49:04.447Z,1015.79
2019-05-12T02:50:01.225Z,1015.83
2019-05-12T02:51:01.186Z,1015.86
2019-05-12T02:52:01.122Z,1015.86
2019-05-12T02:53:01.100Z,1015.85
2019-05-12T02:54:01.007Z,1015.90
2019-05-12T02:55:02.618Z,1015.88
2019-05-12T02:56:00.900Z,1015.95
2019-05-12T02:57:04.031Z,1015.89
2019-05-12T02:58:00.814Z,1015.92
2019-05-12T02:59:00.744Z,1015.93
2019-05-12T03:00:00.677Z,1015.92
2019-05-12T03:01:00.627Z,1015.94
2019-05-12T03:02:00.563Z,1015.96
2019-05-12T03:03:00.532Z,1015.98
2019-05-12T03:04:00.457Z,1015.99
2019-05-12T03:05:00.397Z,1016.04
2019-05-12T03:06:00.341Z,1016.08
2019-05-12T03:07:05.463Z,1016.09
2019-05-12T03:08:00.254Z,1016.11
2019-05-12T03:09:00.184Z,1016.17
2019-05-12T03:10:00.129Z,1016.18
2019-05-12T03:11:00.069Z,1016.19
2019-05-12T03:12:00.011Z,1016.22
2019-05-12T03:12:59.975Z,1016.27
2019-05-12T03:13:59.902Z,1016.32
2019-05-12T03:14:59.875Z,1016.38
2019-05-12T03:15:59.789Z,1016.38
2019-05-12T03:16:59.744Z,1016.40
2019-05-12T03:17:59.682Z,1016.37
2019-05-12T03:18:59.651Z,1016.37
2019-05-12T03:19:59.572Z,1016.36
2019-05-12T03:20:59.513Z,1016.38
2019-05-12T03:21:59.454Z,1016.38
2019-05-12T03:22:59.406Z,1016.42
2019-05-12T03:23:59.372Z,1016.41
2019-05-12T03:25:14.722Z,1016.39
2019-05-12T03:25:59.240Z,1016.41
2019-05-12T03:26:59.178Z,1016.44
2019-05-12T03:27:59.127Z,1016.45
2019-05-12T03:28:59.100Z,1016.45
2019-05-12T03:29:59.018Z,1016.49
2019-05-12T03:30:58.969Z,1016.55
2019-05-12T03:31:58.904Z,1016.56
2019-05-12T03:32:58.887Z,1016.57
2019-05-12T03:34:00.400Z,1016.59
2019-05-12T03:34:58.746Z,1016.59
2019-05-12T03:36:00.668Z,1016.60
2019-05-12T03:36:59.585Z,1016.59
2019-05-12T03:37:58.572Z,1016.64
2019-05-12T03:38:58.541Z,1016.61
2019-05-12T03:39:58.466Z,1016.66
2019-05-12T03:40:58.412Z,1016.68
2019-05-12T03:41:58.348Z,1016.70
2019-05-12T03:42:58.299Z,1016.75
2019-05-12T03:43:58.271Z,1016.78
2019-05-12T03:44:58.194Z,1016.78
2019-05-12T03:45:58.134Z,1016.79
2019-05-12T03:46:58.077Z,1016.84
2019-05-12T03:47:58.025Z,1016.86
2019-05-12T03:48:57.989Z,1016.88
2019-05-12T03:49:57.912Z,1016.90
2019-05-12T03:50:57.855Z,1017.00
2019-05-12T03:51:57.801Z,1016.98
2019-05-12T03:52:57.762Z,1017.01
2019-05-12T03:53:57.718Z,1017.01
2019-05-12T03:54:57.632Z,1017.06
2019-05-12T03:55:57.576Z,1017.03
2019-05-12T03:56:57.528Z,1017.09
2019-05-12T03:57:57.476Z,1017.11
2019-05-12T03:58:57.446Z,1017.12
2019-05-12T03:59:57.368Z,1017.11
2019-05-12T04:00:57.305Z,1017.16
2019-05-12T04:01:57.257Z,1017.12
2019-05-12T04:02:57.198Z,1017.15
2019-05-12T04:03:57.164Z,1017.20
2019-05-12T04:04:57.086Z,1017.26
2019-05-12T04:05:57.028Z,1017.24
2019-05-12T04:06:56.973Z,1017.27
2019-05-12T04:07:56.920Z,1017.28
2019-05-12T04:08:59.906Z,1017.32
2019-05-12T04:09:56.805Z,1017.31
2019-05-12T04:10:56.746Z,1017.36
2019-05-12T04:11:56.697Z,1017.37
2019-05-12T04:12:56.647Z,1017.40
2019-05-12T04:13:56.612Z,1017.41
2019-05-12T04:14:56.532Z,1017.40
2019-05-12T04:15:56.473Z,1017.40
2019-05-12T04:16:56.427Z,1017.43
2019-05-12T04:17:56.370Z,1017.44
2019-05-12T04:18:56.334Z,1017.43
2019-05-12T04:19:56.257Z,1017.40
2019-05-12T04:20:56.206Z,1017.40
2019-05-12T04:21:56.150Z,1017.43
2019-05-12T04:22:56.093Z,1017.40
2019-05-12T04:23:56.062Z,1017.40
2019-05-12T04:24:55.973Z,1017.44
2019-05-12T04:26:07.381Z,1017.42
2019-05-12T04:26:55.876Z,1017.45
2019-05-12T04:27:55.831Z,1017.47
2019-05-12T04:28:55.796Z,1017.47
2019-05-12T04:29:55.705Z,1017.51
2019-05-12T04:30:55.651Z,1017.54
2019-05-12T04:31:55.597Z,1017.56
2019-05-12T04:32:55.540Z,1017.57
2019-05-12T04:33:55.503Z,1017.57
2019-05-12T04:34:55.437Z,1017.60
2019-05-12T04:35:55.612Z,1017.65
2019-05-12T04:36:55.639Z,1017.65
2019-05-12T04:37:55.593Z,1017.65
2019-05-12T04:38:55.870Z,1017.67
2019-05-12T04:39:55.497Z,1017.68
2019-05-12T04:40:55.433Z,1017.73
2019-05-12T04:41:55.317Z,1017.71
2019-05-12T04:42:55.096Z,1017.70
2019-05-12T04:43:55.175Z,1017.69
2019-05-12T04:44:55.312Z,1017.75
2019-05-12T04:45:54.973Z,1017.79
2019-05-12T04:46:55.551Z,1017.78
2019-05-12T04:47:55.325Z,1017.82
2019-05-12T04:48:54.808Z,1017.80
2019-05-12T04:49:54.811Z,1017.81
2019-05-12T04:50:54.950Z,1017.81
2019-05-12T04:51:54.698Z,1017.79
2019-05-12T04:52:54.957Z,1017.84
2019-05-12T04:53:55.006Z,1017.83
2019-05-12T04:54:55.234Z,1017.86
2019-05-12T04:56:07.378Z,1017.87
2019-05-12T04:56:55.123Z,1017.88
2019-05-12T04:57:54.668Z,1017.87
2019-05-12T04:58:54.723Z,1017.91
2019-05-12T04:59:54.431Z,1017.95
2019-05-12T05:00:54.155Z,1017.92
2019-05-12T05:01:54.157Z,1017.97
2019-05-12T05:02:54.529Z,1018.03
2019-05-12T05:03:54.555Z,1018.05
2019-05-12T05:04:54.703Z,1018.05
2019-05-12T05:05:54.892Z,1018.05
2019-05-12T05:06:55.062Z,1018.08
2019-05-12T05:07:54.812Z,1018.07
2019-05-12T05:08:54.495Z,1018.12
2019-05-12T05:09:54.940Z,1018.13
2019-05-12T05:10:54.828Z,1018.16
2019-05-12T05:11:54.342Z,1018.19
2019-05-12T05:12:54.026Z,1018.22
2019-05-12T05:13:54.822Z,1018.24
2019-05-12T05:14:54.885Z,1018.26
2019-05-12T05:15:54.875Z,1018.27
2019-05-12T05:16:54.244Z,1018.29
2019-05-12T05:17:54.524Z,1018.30
2019-05-12T05:18:54.286Z,1018.32
2019-05-12T05:19:53.491Z,1018.31
2019-05-12T05:20:54.192Z,1018.35
2019-05-12T05:21:54.184Z,1018.36
2019-05-12T05:22:54.192Z,1018.37
2019-05-12T05:23:53.695Z,1018.39
2019-05-12T05:24:53.615Z,1018.41
2019-05-12T05:25:53.870Z,1018.41
2019-05-12T05:26:53.964Z,1018.47
2019-05-12T05:27:53.317Z,1018.44
2019-05-12T05:28:54.251Z,1018.48
2019-05-12T05:29:54.366Z,1018.53
2019-05-12T05:30:53.467Z,1018.51
2019-05-12T05:31:53.436Z,1018.50
2019-05-12T05:32:53.561Z,1018.54
2019-05-12T05:33:53.649Z,1018.57
2019-05-12T05:34:55.940Z,1018.58
2019-05-12T05:35:54.152Z,1018.59
2019-05-12T05:36:59.460Z,1018.64
2019-05-12T05:37:53.875Z,1018.62
2019-05-12T05:38:57.339Z,1018.63
2019-05-12T05:39:53.915Z,1018.63
2019-05-12T05:40:53.985Z,1018.70
2019-05-12T05:41:53.679Z,1018.70
2019-05-12T05:42:54.133Z,1018.72
2019-05-12T05:43:54.263Z,1018.74
2019-05-12T05:44:54.176Z,1018.78
2019-05-12T05:45:54.534Z,1018.81
2019-05-12T05:46:54.507Z,1018.82
2019-05-12T05:47:51.449Z,1018.81
2019-05-12T05:48:51.382Z,1018.86
2019-05-12T05:49:51.336Z,1018.87
2019-05-12T05:50:51.305Z,1018.90
2019-05-12T05:51:55.111Z,1018.86
2019-05-12T05:52:51.166Z,1018.87
2019-05-12T05:53:51.940Z,1018.92
2019-05-12T05:54:53.134Z,1018.88
2019-05-12T05:55:56.278Z,1018.87
2019-05-12T05:56:59.626Z,1018.86
2019-05-12T05:57:50.904Z,1018.86
2019-05-12T05:58:52.453Z,1018.84
2019-05-12T05:59:50.795Z,1018.85
2019-05-12T06:00:54.721Z,1018.83
2019-05-12T06:01:52.529Z,1018.84
2019-05-12T06:02:50.633Z,1018.84
2019-05-12T06:03:50.581Z,1018.88
2019-05-12T06:04:54.094Z,1018.87
2019-05-12T06:05:50.500Z,1018.91
2019-05-12T06:06:52.799Z,1018.91
2019-05-12T06:07:50.366Z,1018.93
2019-05-12T06:08:50.317Z,1019.01
2019-05-12T06:09:50.257Z,1018.99
2019-05-12T06:10:50.229Z,1019.03
2019-05-12T06:11:50.151Z,1019.04
2019-05-12T06:12:50.879Z,1019.06
2019-05-12T06:13:50.054Z,1019.10
2019-05-12T06:14:55.218Z,1019.09
2019-05-12T06:15:49.976Z,1019.04
2019-05-12T06:16:49.895Z,1019.09
2019-05-12T06:17:49.836Z,1019.07
2019-05-12T06:18:49.787Z,1019.08
2019-05-12T06:19:49.737Z,1019.08
2019-05-12T06:20:49.712Z,1019.06
2019-05-12T06:21:49.624Z,1019.10
2019-05-12T06:22:54.417Z,1019.15
2019-05-12T06:23:49.521Z,1019.17
2019-05-12T06:24:56.854Z,1019.21
2019-05-12T06:25:51.516Z,1019.19
2019-05-12T06:26:57.747Z,1019.22
2019-05-12T06:27:51.050Z,1019.22
2019-05-12T06:28:49.260Z,1019.21
2019-05-12T06:29:52.501Z,1019.25
2019-05-12T06:30:50.191Z,1019.24
2019-05-12T06:31:49.116Z,1019.22
2019-05-12T06:32:51.731Z,1019.19
2019-05-12T06:33:48.993Z,1019.17
2019-05-12T06:34:51.005Z,1019.21
2019-05-12T06:35:48.885Z,1019.26
2019-05-12T06:36:48.855Z,1019.24
2019-05-12T06:37:57.103Z,1019.18
2019-05-12T06:38:48.741Z,1019.21
2019-05-12T06:39:50.926Z,1019.26
2019-05-12T06:40:48.623Z,1019.23
2019-05-12T06:41:48.596Z,1019.27
2019-05-12T06:42:53.214Z,1019.29
2019-05-12T06:43:48.463Z,1019.33
2019-05-12T06:44:49.047Z,1019.36
2019-05-12T06:45:48.356Z,1019.38
2019-05-12T06:46:53.402Z,1019.39
2019-05-12T06:47:49.738Z,1019.43
2019-05-12T06:48:48.206Z,1019.44
2019-05-12T06:49:48.729Z,1019.42
2019-05-12T06:50:48.099Z,1019.46
2019-05-12T06:51:48.064Z,1019.44
2019-05-12T06:52:49.141Z,1019.52
2019-05-12T06:53:47.938Z,1019.49
2019-05-12T06:54:51.441Z,1019.47
2019-05-12T06:55:47.830Z,1019.48
2019-05-12T06:56:53.390Z,1019.49
2019-05-12T06:57:50.136Z,1019.53
2019-05-12T06:58:47.667Z,1019.48
2019-05-12T06:59:51.454Z,1019.58
2019-05-12T07:00:47.577Z,1019.50
2019-05-12T07:01:49.879Z,1019.51
2019-05-12T07:02:52.380Z,1019.57
2019-05-12T07:03:47.412Z,1019.58
2019-05-12T07:04:56.352Z,1019.58
2019-05-12T07:05:47.313Z,1019.62
2019-05-12T07:06:49.833Z,1019.63
2019-05-12T07:07:47.205Z,1019.58
2019-05-12T07:08:47.151Z,1019.64
2019-05-12T07:09:54.150Z,1019.63
2019-05-12T07:10:57.777Z,1019.62
2019-05-12T07:11:53.338Z,1019.64
2019-05-12T07:12:58.805Z,1019.55
2019-05-12T07:13:46.892Z,1019.67
2019-05-12T07:14:48.978Z,1019.66
2019-05-12T07:15:46.820Z,1019.67
2019-05-12T07:16:46.790Z,1019.71
2019-05-12T07:17:49.798Z,1019.65
2019-05-12T07:18:46.623Z,1019.73
2019-05-12T07:19:46.577Z,1019.75
2019-05-12T07:20:46.530Z,1019.77
2019-05-12T07:21:50.721Z,1019.80
2019-05-12T07:22:48.501Z,1019.82
2019-05-12T07:23:46.375Z,1019.80
2019-05-12T07:24:50.138Z,1019.80
2019-05-12T07:25:46.271Z,1019.78
2019-05-12T07:26:48.056Z,1019.76
2019-05-12T07:27:54.995Z,1019.83
2019-05-12T07:28:46.116Z,1019.80
2019-05-12T07:29:48.255Z,1019.80
2019-05-12T07:30:54.488Z,1019.83
2019-05-12T07:31:45.961Z,1019.85
2019-05-12T07:32:45.930Z,1019.82
2019-05-12T07:33:46.162Z,1019.79
2019-05-12T07:34:45.797Z,1019.77
2019-05-12T07:35:45.746Z,1019.81
2019-05-12T07:36:45.827Z,1019.80
2019-05-12T07:37:45.670Z,1019.80
2019-05-12T07:38:45.595Z,1019.90
2019-05-12T07:39:49.425Z,1019.89
2019-05-12T07:40:45.489Z,1019.94
2019-05-12T07:41:50.775Z,1019.87
2019-05-12T07:42:45.430Z,1019.88
2019-05-12T07:43:45.334Z,1019.83
2019-05-12T07:44:45.284Z,1019.90
2019-05-12T07:45:45.237Z,1019.93
2019-05-12T07:46:49.374Z,1019.91
2019-05-12T07:47:45.153Z,1019.95
2019-05-12T07:48:49.050Z,1019.88
2019-05-12T07:49:45.028Z,1019.82
2019-05-12T07:50:44.978Z,1019.86
2019-05-12T07:51:44.927Z,1019.81
2019-05-12T07:52:44.926Z,1019.88
2019-05-12T07:53:46.888Z,1019.85
2019-05-12T07:54:44.771Z,1019.84
2019-05-12T07:55:49.185Z,1019.87
2019-05-12T07:56:44.664Z,1019.81
2019-05-12T07:57:52.902Z,1019.88
2019-05-12T07:58:47.493Z,1019.83
2019-05-12T07:59:44.513Z,1019.92
2019-05-12T08:00:44.507Z,1019.96
2019-05-12T08:01:50.748Z,1019.98
2019-05-12T08:02:44.563Z,1019.89
2019-05-12T08:03:44.341Z,1019.98
2019-05-12T08:04:44.280Z,1020.01
2019-05-12T08:05:44.204Z,1019.98
2019-05-12T08:06:46.633Z,1020.04
2019-05-12T08:07:44.591Z,1020.08
2019-05-12T08:08:50.295Z,1020.09
2019-05-12T08:09:43.995Z,1020.09
2019-05-12T08:10:44.375Z,1020.12
2019-05-12T08:11:43.924Z,1020.07
2019-05-12T08:12:44.444Z,1020.08
2019-05-12T08:13:44.023Z,1020.08
2019-05-12T08:14:44.006Z,1020.11
2019-05-12T08:15:45.789Z,1020.07
2019-05-12T08:16:43.785Z,1020.06
2019-05-12T08:17:44.217Z,1020.06
2019-05-12T08:18:44.402Z,1020.14
2019-05-12T08:19:44.368Z,1020.10
2019-05-12T08:20:43.700Z,1020.00
2019-05-12T08:21:48.529Z,1020.00
2019-05-12T08:22:43.817Z,1020.03
2019-05-12T08:23:44.505Z,1020.09
2019-05-12T08:24:47.571Z,1020.12
2019-05-12T08:25:43.777Z,1020.17
2019-05-12T08:26:43.529Z,1020.15
2019-05-12T08:27:45.378Z,1020.20
2019-05-12T08:28:44.230Z,1020.15
2019-05-12T08:29:43.395Z,1020.18
2019-05-12T08:30:49.818Z,1020.05
2019-05-12T08:31:44.065Z,1020.14
2019-05-12T08:32:44.250Z,1020.13
2019-05-12T08:33:43.654Z,1020.18
2019-05-12T08:34:43.742Z,1020.17
2019-05-12T08:35:43.799Z,1020.10
2019-05-12T08:36:45.043Z,1020.11
2019-05-12T08:37:44.168Z,1020.13
2019-05-12T08:38:44.440Z,1020.14
2019-05-12T08:39:44.314Z,1020.15
2019-05-12T08:40:48.842Z,1020.18
2019-05-12T08:41:44.426Z,1020.12
2019-05-12T08:42:43.575Z,1020.11
2019-05-12T08:43:47.130Z,1020.16
2019-05-12T08:44:43.994Z,1020.13
2019-05-12T08:45:44.330Z,1020.18
2019-05-12T08:46:43.245Z,1020.15
2019-05-12T08:47:44.078Z,1020.17
2019-05-12T08:48:44.375Z,1020.15
2019-05-12T08:49:53.419Z,1020.18
2019-05-12T08:50:45.298Z,1020.14
2019-05-12T08:51:44.135Z,1020.15
2019-05-12T08:52:44.163Z,1020.18
2019-05-12T08:53:43.827Z,1020.21
2019-05-12T08:54:45.482Z,1020.20
2019-05-12T08:55:43.570Z,1020.24
2019-05-12T08:56:43.589Z,1020.26
2019-05-12T08:57:49.222Z,1020.23
2019-05-12T08:58:50.490Z,1020.27
2019-05-12T08:59:41.457Z,1020.27
2019-05-12T09:00:46.581Z,1020.25
2019-05-12T09:01:43.715Z,1020.27
2019-05-12T09:02:46.080Z,1020.28
2019-05-12T09:03:41.208Z,1020.36
2019-05-12T09:04:45.373Z,1020.33
2019-05-12T09:05:41.110Z,1020.31
2019-05-12T09:06:43.297Z,1020.34
2019-05-12T09:07:41.003Z,1020.35
2019-05-12T09:08:44.755Z,1020.33
2019-05-12T09:09:40.930Z,1020.36
2019-05-12T09:10:40.848Z,1020.34
2019-05-12T09:11:40.797Z,1020.45
2019-05-12T09:12:40.757Z,1020.41
2019-05-12T09:13:43.223Z,1020.42
2019-05-12T09:14:41.243Z,1020.46
2019-05-12T09:15:43.751Z,1020.45
2019-05-12T09:16:41.286Z,1020.38
2019-05-12T09:17:49.508Z,1020.49
2019-05-12T09:18:43.297Z,1020.37
2019-05-12T09:19:43.654Z,1020.41
2019-05-12T09:20:48.842Z,1020.43
2019-05-12T09:21:40.290Z,1020.39
2019-05-12T09:22:40.237Z,1020.38
2019-05-12T09:23:41.395Z,1020.35
2019-05-12T09:24:40.165Z,1020.38
2019-05-12T09:25:45.078Z,1020.36
2019-05-12T09:26:40.034Z,1020.49
2019-05-12T09:27:48.021Z,1020.50
2019-05-12T09:28:47.360Z,1020.44
2019-05-12T09:29:39.909Z,1020.48
2019-05-12T09:30:40.116Z,1020.46
2019-05-12T09:31:39.790Z,1020.43
2019-05-12T09:32:45.432Z,1020.42
2019-05-12T09:33:39.679Z,1020.37
2019-05-12T09:34:46.880Z,1020.40
2019-05-12T09:35:39.575Z,1020.43
2019-05-12T09:36:39.526Z,1020.43
2019-05-12T09:37:40.591Z,1020.45
2019-05-12T09:38:40.991Z,1020.43
2019-05-12T09:39:42.492Z,1020.39
2019-05-12T09:40:39.318Z,1020.46
2019-05-12T09:41:48.602Z,1020.46
2019-05-12T09:42:39.231Z,1020.40
2019-05-12T09:43:40.173Z,1020.34
2019-05-12T09:44:41.295Z,1020.40
2019-05-12T09:45:40.272Z,1020.43
2019-05-12T09:46:39.017Z,1020.46
2019-05-12T09:47:38.972Z,1020.44
2019-05-12T09:48:43.869Z,1020.50
2019-05-12T09:49:39.712Z,1020.48
2019-05-12T09:50:38.817Z,1020.43
2019-05-12T09:51:45.700Z,1020.49
2019-05-12T09:52:38.717Z,1020.46
2019-05-12T09:53:42.766Z,1020.44
2019-05-12T09:54:40.926Z,1020.48
2019-05-12T09:55:38.587Z,1020.47
2019-05-12T09:56:41.116Z,1020.50
2019-05-12T09:57:40.566Z,1020.52
2019-05-12T09:58:38.409Z,1020.53
2019-05-12T09:59:38.361Z,1020.49
2019-05-12T10:00:38.331Z,1020.58
2019-05-12T10:01:39.638Z,1020.61
2019-05-12T10:02:38.204Z,1020.58
2019-05-12T10:03:40.044Z,1020.58
2019-05-12T10:04:38.129Z,1020.55
2019-05-12T10:05:41.240Z,1020.55
2019-05-12T10:06:38.010Z,1020.62
2019-05-12T10:07:37.976Z,1020.61
2019-05-12T10:08:38.018Z,1020.60
2019-05-12T10:09:37.858Z,1020.59
2019-05-12T10:10:40.223Z,1020.61
2019-05-12T10:11:37.755Z,1020.61
2019-05-12T10:12:45.257Z,1020.60
2019-05-12T10:13:37.655Z,1020.61
2019-05-12T10:14:40.831Z,1020.64
2019-05-12T10:15:37.576Z,1020.65
2019-05-12T10:16:39.333Z,1020.70
2019-05-12T10:17:37.453Z,1020.65
2019-05-12T10:18:37.404Z,1020.66
2019-05-12T10:19:37.350Z,1020.65
2019-05-12T10:20:39.714Z,1020.65
2019-05-12T10:21:37.251Z,1020.61
2019-05-12T10:22:40.051Z,1020.66
2019-05-12T10:23:37.148Z,1020.61
2019-05-12T10:24:41.620Z,1020.64
2019-05-12T10:25:37.073Z,1020.72
2019-05-12T10:26:41.178Z,1020.70
2019-05-12T10:27:36.963Z,1020.71
2019-05-12T10:28:36.900Z,1020.72
2019-05-12T10:29:36.853Z,1020.76
2019-05-12T10:30:36.821Z,1020.70
2019-05-12T10:31:39.343Z,1020.78
2019-05-12T10:32:36.698Z,1020.70
2019-05-12T10:33:36.651Z,1020.66
2019-05-12T10:34:40.234Z,1020.71
2019-05-12T10:35:36.574Z,1020.70
2019-05-12T10:36:39.093Z,1020.67
2019-05-12T10:37:36.453Z,1020.75
2019-05-12T10:38:36.399Z,1020.74
2019-05-12T10:39:36.437Z,1020.78
2019-05-12T10:40:36.361Z,1020.77
2019-05-12T10:41:36.252Z,1020.79
2019-05-12T10:42:39.719Z,1020.79
2019-05-12T10:43:36.149Z,1020.82
2019-05-12T10:44:40.515Z,1020.77
2019-05-12T10:45:36.050Z,1020.74
2019-05-12T10:46:36.023Z,1020.80
2019-05-12T10:47:35.949Z,1020.84
2019-05-12T10:48:35.902Z,1020.83
2019-05-12T10:49:35.844Z,1020.83
2019-05-12T10:50:35.802Z,1020.81
2019-05-12T10:51:35.773Z,1020.79
2019-05-12T10:52:38.884Z,1020.81
2019-05-12T10:53:35.660Z,1020.83
2019-05-12T10:54:35.595Z,1020.93
2019-05-12T10:55:35.555Z,1020.89
2019-05-12T10:56:35.525Z,1020.86
2019-05-12T10:57:35.457Z,1020.84
2019-05-12T10:58:35.405Z,1020.78
2019-05-12T10:59:38.922Z,1020.83
2019-05-12T11:00:35.299Z,1020.91
2019-05-12T11:01:38.447Z,1020.90
2019-05-12T11:02:35.196Z,1020.89
2019-05-12T11:03:35.145Z,1020.89
2019-05-12T11:04:40.714Z,1020.90
2019-05-12T11:05:35.046Z,1020.88
2019-05-12T11:06:39.778Z,1020.81
2019-05-12T11:07:34.948Z,1020.80
2019-05-12T11:08:34.896Z,1020.81
2019-05-12T11:09:34.851Z,1020.81
2019-05-12T11:10:34.801Z,1020.81
2019-05-12T11:11:42.165Z,1020.83
2019-05-12T11:12:34.716Z,1020.84
2019-05-12T11:13:34.652Z,1020.79
2019-05-12T11:14:34.623Z,1020.74
2019-05-12T11:15:34.680Z,1020.81
2019-05-12T11:16:35.074Z,1020.81
2019-05-12T11:17:34.474Z,1020.80
2019-05-12T11:18:34.394Z,1020.77
2019-05-12T11:19:34.348Z,1020.77
2019-05-12T11:20:34.594Z,1020.73
2019-05-12T11:21:34.244Z,1020.68
2019-05-12T11:22:34.217Z,1020.76
2019-05-12T11:23:34.572Z,1020.82
2019-05-12T11:24:34.095Z,1020.76
2019-05-12T11:25:34.271Z,1020.72
2019-05-12T11:26:33.999Z,1020.75
2019-05-12T11:27:34.561Z,1020.81
2019-05-12T11:28:33.900Z,1020.80
2019-05-12T11:29:45.830Z,1020.74
2019-05-12T11:30:34.784Z,1020.79
2019-05-12T11:31:33.791Z,1020.83
2019-05-12T11:32:37.732Z,1020.85
2019-05-12T11:33:34.141Z,1020.82
2019-05-12T11:34:33.677Z,1020.86
2019-05-12T11:35:33.546Z,1020.84
2019-05-12T11:36:34.470Z,1020.85
2019-05-12T11:37:33.860Z,1020.86
2019-05-12T11:38:33.675Z,1020.82
2019-05-12T11:39:38.782Z,1020.84
2019-05-12T11:40:34.728Z,1020.81
2019-05-12T11:41:33.388Z,1020.83
2019-05-12T11:42:33.685Z,1020.85
2019-05-12T11:43:33.768Z,1020.86
2019-05-12T11:44:33.663Z,1020.89
2019-05-12T11:45:33.602Z,1020.90
2019-05-12T11:46:36.221Z,1020.89
2019-05-12T11:47:34.622Z,1020.87
2019-05-12T11:48:33.946Z,1020.84
2019-05-12T11:49:33.396Z,1020.80
2019-05-12T11:50:32.795Z,1020.82
2019-05-12T11:51:34.089Z,1020.88
2019-05-12T11:52:33.427Z,1020.82
2019-05-12T11:53:34.862Z,1020.76
2019-05-12T11:54:33.584Z,1020.78
2019-05-12T11:55:34.710Z,1020.83
2019-05-12T11:56:33.650Z,1020.84
2019-05-12T11:57:34.096Z,1020.81
2019-05-12T11:58:33.535Z,1020.84
2019-05-12T11:59:34.178Z,1020.81
2019-05-12T12:00:33.656Z,1020.85
2019-05-12T12:01:34.444Z,1020.93
2019-05-12T12:02:34.074Z,1020.90
2019-05-12T12:03:33.637Z,1020.92
2019-05-12T12:04:34.025Z,1020.93